• Join FlightAware (Why Join?)
  • Login
  • US Flag 
05:06PM EST


 

Airport Tracker/Info


-or-


 

Live Flight TrackerFlight Track Log ✈ SWA2236 ✈ 15-Jul-2013 ✈ KDAL - KABQ

Flight Track Log - Related Links

Times and Time Zones

All times are in EDT time to prevent confusion due to time zone crossing. See the SWA2236 flight status page for this flight to view local times or setup timezone preferences in your user account.

Time Position Orientation Groundspeed Altitude Reporting Facility
EDT Latitude Longitude Course Direction KTS MPH feet Rate Location/Type
07:08AM 32.8333 -96.8333 128° Southeast 160 184 1,400  Level Dallas / Fort Worth TRACON
07:09AM 32.8000 -96.7833 128° Southeast 221 254 3,300 2,100 Climbing Dallas / Fort Worth TRACON
07:10AM 32.7500 -96.7833 180° South 222 255 5,700 3,060 Climbing Dallas / Fort Worth TRACON
07:11AM 32.7333 -96.8667 257° West 268 308 9,900 3,000 Climbing Dallas / Fort Worth TRACON
07:13AM 32.7639 -97.0403 282° West 324 373 14,000 2,640 Climbing Fort Worth Center
07:14AM 32.7892 -97.1564 285° West 346 398 16,900 3,000 Climbing Fort Worth Center
07:15AM 32.8292 -97.2675 293° West 370 426 20,000 2,940 Climbing Fort Worth Center
07:16AM 32.8625 -97.3714 291° West 370 426 22,800 1,980 Climbing Fort Worth Center
07:17AM 32.9000 -97.4900 291° West 376 433 24,000 1,500 Climbing Fort Worth Center
07:18AM 32.9417 -97.6164 291° West 389 448 25,900 1,980 Climbing Fort Worth Center
07:19AM 32.9833 -97.7428 291° West 405 466 28,000 2,040 Climbing Fort Worth Center
07:20AM 33.0267 -97.8744 291° West 411 473 30,000 1,920 Climbing Fort Worth Center
07:21AM 33.0658 -97.9983 291° West 411 473 31,900 1,560 Climbing Fort Worth Center
07:22AM 33.1069 -98.1278 291° West 411 473 33,200 1,260 Climbing Fort Worth Center
07:23AM 33.1500 -98.2594 291° West 411 473 34,500 1,620 Climbing Fort Worth Center
07:24AM 33.1906 -98.3914 290° West 411 473 36,500 1,680 Climbing Fort Worth Center
07:25AM 33.2333 -98.5261 291° West 406 467 37,900 720 Climbing Fort Worth Center
07:26AM 33.2719 -98.6508 290° West 406 467 38,000  Climbing Fort Worth Center
07:27AM 33.3122 -98.7781 291° West 406 467 38,000  Level Fort Worth Center
07:28AM 33.3525 -98.9031 291° West 406 467 38,000  Level Fort Worth Center
07:29AM 33.3906 -99.0281 290° West 406 467 38,000  Level Fort Worth Center
07:30AM 33.4286 -99.1508 290° West 406 467 38,000  Level Fort Worth Center
07:31AM 33.4667 -99.2761 290° West 406 467 38,000  Level Fort Worth Center
07:32AM 33.5042 -99.4014 290° West 406 467 38,000  Level Fort Worth Center
07:33AM 33.5439 -99.5244 291° West 406 467 38,000  Level Fort Worth Center
07:34AM 33.5814 -99.6525 289° West 406 467 38,000  Level Fort Worth Center
07:35AM 33.6208 -99.7781 291° West 406 467 38,000  Level Fort Worth Center
07:36AM 33.6581 -99.9039 290° West 406 467 38,000  Level Fort Worth Center
07:37AM 33.6953 -100.0297 290° West 406 467 38,000  Level Fort Worth Center
07:38AM 33.7303 -100.1458 290° West 411 473 38,000  Level Fort Worth Center
07:39AM 33.7692 -100.2744 290° West 406 467 38,000  Level Fort Worth Center
07:40AM 33.8058 -100.4006 289° West 406 467 38,000  Level Fort Worth Center
07:41AM 33.8425 -100.5269 289° West 406 467 38,000  Level Fort Worth Center
07:42AM 33.8808 -100.6533 290° West 406 467 38,000  Level Fort Worth Center
07:43AM 33.9192 -100.7850 289° West 406 467 38,000  Level Fort Worth Center
07:44AM 33.9533 -100.9139 288° West 406 467 38,000  Level Fort Worth Center
07:45AM 33.9972 -101.0533 291° West 406 467 38,000  Level Fort Worth Center
07:46AM 34.0311 -101.1728 289° West 406 467 38,000  Level Fort Worth Center
07:47AM 34.0728 -101.3150 290° West 412 474 38,000  Level Fort Worth Center
07:48AM 34.1044 -101.4317 288° West 412 474 38,000  Level Fort Worth Center
07:49AM 34.1436 -101.5739 288° West 412 474 38,000  Level Fort Worth Center
07:50AM 34.1956 -101.7564 289° West 410 472 38,000  Level Albuquerque Center
07:51AM 34.2333 -101.8886 289° West 413 475 38,000  Level Albuquerque Center
07:52AM 34.2700 -102.0214 289° West 415 478 38,000  Level Albuquerque Center
07:53AM 34.3069 -102.1542 289° West 417 480 38,000  Level Albuquerque Center
07:54AM 34.3444 -102.2872 289° West 416 479 38,000  Level Albuquerque Center
07:55AM 34.3814 -102.4219 288° West 418 481 38,000  Level Albuquerque Center
07:56AM 34.4183 -102.5572 288° West 420 483 38,000  Level Albuquerque Center
07:57AM 34.4556 -102.6925 288° West 421 484 38,000  Level Albuquerque Center
07:58AM 34.4969 -102.8481 288° West 421 484 38,000  Level Albuquerque Center
07:59AM 34.5108 -102.9706 278° West 432 497 38,000  Level Albuquerque Center
08:00AM 34.5289 -103.1169 279° West 435 501 38,000  Level Albuquerque Center
08:01AM 34.5472 -103.2631 279° West 434 499 38,000  Level Albuquerque Center
08:02AM 34.5633 -103.4092 278° West 433 498 38,000  Level Albuquerque Center
08:03AM 34.5806 -103.5542 278° West 431 496 38,000  Level Albuquerque Center
08:04AM 34.6106 -103.6967 284° West 431 496 38,000  Level Albuquerque Center
08:05AM 34.6461 -103.8350 287° West 426 490 38,000  Level Albuquerque Center
08:06AM 34.6803 -103.9758 286° West 427 491 38,000  Level Albuquerque Center
08:07AM 34.7142 -104.1181 286° West 431 496 38,000  Level Albuquerque Center
08:08AM 34.7492 -104.2619 287° West 435 501 38,000  Level Albuquerque Center
08:09AM 34.7836 -104.4053 286° West 436 502 38,000  Level Albuquerque Center
08:10AM 34.8122 -104.5522 283° West 439 505 38,000 -180 Level Albuquerque Center
08:11AM 34.8289 -104.7053 278° West 449 517 37,700 -1,620 Descending Albuquerque Center
08:12AM 34.8464 -104.8575 278° West 449 517 34,800 -3,000 Descending Albuquerque Center
08:13AM 34.8633 -105.0111 278° West 451 519 31,800 -2,640 Descending Albuquerque Center
08:14AM 34.8800 -105.1636 278° West 451 519 29,500 -2,280 Descending Albuquerque Center
08:15AM 34.8956 -105.3097 277° West 437 503 27,300 -2,220 Descending Albuquerque Center
08:16AM 34.9114 -105.4522 278° West 425 489 25,100 -2,160 Descending Albuquerque Center
08:17AM 34.9256 -105.5906 277° West 413 475 23,000 -2,040 Descending Albuquerque Center
08:18AM 34.9392 -105.7247 277° West 401 461 21,000 -2,040 Descending Albuquerque Center
08:19AM 34.9522 -105.8561 277° West 391 450 19,000 -1,800 Descending Albuquerque Center
08:20AM 34.9619 -105.9633 276° West 384 442 17,400 -1,500 Descending Albuquerque Center
08:21AM 34.9744 -106.0894 277° West 377 434 16,000 -1,680 Descending Albuquerque Center
08:22AM 34.9719 -106.2119 269° West 366 421 14,100 -1,500 Descending Albuquerque Center
08:23AM 34.9594 -106.3339 263° West 374 430 13,000 -600 Descending Albuquerque Center
08:24AM 34.9600 -106.4328 270° West 308 354 13,000 -240 Level Albuquerque Center
08:25AM 34.9547 -106.5386 267° West 266 306 12,600 -780 Descending Albuquerque Center
08:26AM 34.9203 -106.6025 237° Southwest 239 275 11,500 -1,260 Descending Albuquerque Center
08:27AM 34.8964 -106.6528 240° Southwest 208 239 10,100 -1,440 Descending Albuquerque Center
08:28AM 34.8967 -106.6933 270° West 182 209 8,600 -1,380 Descending Albuquerque Center
08:29AM 34.9358 -106.6947 358° North 166 191 7,400 -1,020 Descending Albuquerque Center
08:30AM 34.9733 -106.6811 17° North 149 171 6,600 -840 Descending Albuquerque Center
08:31AM 35.0050 -106.6517 37° Northeast 145 167 5,800 -660 Descending Albuquerque Center
08:32AM 35.0303 -106.6186 47° Northeast 147 169 5,300 -540 Descending Albuquerque Center
08:34AM 35.0333 -106.6000 90° East  Level FlightAware Approximate